Time;durP1;ratioP1;P1;durP2;ratioP2;P2;SDS_P1;SDS_P2;PMS_P1;PMS_P2;Temp;Humidity;BMP_temperature;BMP_pressure;BME280_temperature;BME280_humidity;BME280_pressure;Samples;Min_cycle;Max_cycle;Signal;HPM_P1;HPM_P2
2022/07/17 00:00:44;;;;;;;1.83;0.70;;;;;;;;;;5012761;28;20032;-77
2022/07/17 00:03:11;;;;;;;3.55;0.80;;;;;;;;;;5013685;28;20030;-78
2022/07/17 00:05:37;;;;;;;2.78;1.20;;;;;;;;;;5013430;28;20030;-75
2022/07/17 00:08:04;;;;;;;3.38;0.82;;;;;;;;;;5013560;28;20105;-78
2022/07/17 00:10:31;;;;;;;2.60;0.90;;;;;;;;;;5013074;28;20324;-76
2022/07/17 00:12:57;;;;;;;2.00;0.75;;;;;;;;;;5012796;28;20030;-77
2022/07/17 00:15:23;;;;;;;1.90;0.68;;;;;;;;;;5012688;28;20048;-79
2022/07/17 00:17:49;;;;;;;1.80;0.80;;;;;;;;;;5013050;28;20117;-79
2022/07/17 00:20:15;;;;;;;1.83;0.90;;;;;;;;;;5012820;28;20445;-78
2022/07/17 00:22:43;;;;;;;1.63;0.82;;;;;;;;;;5013432;28;20057;-78
2022/07/17 00:25:09;;;;;;;1.83;0.90;;;;;;;;;;5012910;28;20091;-77
2022/07/17 00:27:36;;;;;;;1.52;0.82;;;;;;;;;;5013054;28;20148;-79
2022/07/17 00:30:03;;;;;;;2.33;0.85;;;;;;;;;;5013048;28;20451;-79
2022/07/17 00:32:29;;;;;;;2.88;0.82;;;;;;;;;;5014651;28;20049;-78
2022/07/17 00:34:55;;;;;;;2.72;0.80;;;;;;;;;;5012890;28;20030;-77
2022/07/17 00:37:23;;;;;;;2.17;0.90;;;;;;;;;;5012937;28;20030;-77
2022/07/17 00:39:49;;;;;;;2.28;0.82;;;;;;;;;;5013282;28;20542;-79
2022/07/17 00:42:19;;;;;;;1.65;0.70;;;;;;;;;;5012749;28;20092;-78
2022/07/17 00:44:45;;;;;;;3.03;1.08;;;;;;;;;;5012338;28;20076;-78
2022/07/17 00:47:15;;;;;;;1.33;0.70;;;;;;;;;;5012024;28;20045;-78
2022/07/17 00:49:42;;;;;;;2.45;0.90;;;;;;;;;;5012291;28;20040;-79
2022/07/17 00:52:09;;;;;;;2.50;0.90;;;;;;;;;;5013508;28;20473;-78
2022/07/17 00:54:38;;;;;;;1.55;0.70;;;;;;;;;;5013071;28;20006;-77
2022/07/17 00:57:06;;;;;;;1.73;0.90;;;;;;;;;;5012240;28;20530;-76
2022/07/17 00:59:34;;;;;;;2.28;0.80;;;;;;;;;;5013641;28;20033;-79
2022/07/17 01:02:00;;;;;;;2.05;0.73;;;;;;;;;;5012230;28;20026;-79
2022/07/17 01:04:26;;;;;;;1.70;0.90;;;;;;;;;;5012727;28;20064;-78
2022/07/17 01:06:53;;;;;;;1.85;0.70;;;;;;;;;;5012721;28;20025;-79
2022/07/17 01:09:19;;;;;;;2.05;0.80;;;;;;;;;;5012313;28;20136;-79
2022/07/17 01:11:47;;;;;;;1.52;0.80;;;;;;;;;;5013461;28;20084;-79
2022/07/17 01:14:13;;;;;;;1.80;1.00;;;;;;;;;;5012658;28;20076;-79
2022/07/17 01:16:40;;;;;;;1.70;0.73;;;;;;;;;;5012423;28;20033;-79
2022/07/17 01:19:07;;;;;;;2.17;0.80;;;;;;;;;;5013744;28;20033;-79
2022/07/17 01:21:39;;;;;;;2.85;0.85;;;;;;;;;;5013030;28;20025;-79
2022/07/17 01:24:06;;;;;;;2.90;1.15;;;;;;;;;;5012738;28;20037;-79
2022/07/17 01:26:32;;;;;;;2.30;0.80;;;;;;;;;;5012938;28;20064;-79
2022/07/17 01:28:58;;;;;;;2.00;0.90;;;;;;;;;;5014239;28;20087;-79
2022/07/17 01:31:24;;;;;;;2.65;0.90;;;;;;;;;;5012415;28;20034;-77
2022/07/17 01:33:51;;;;;;;1.77;0.80;;;;;;;;;;5013826;28;20030;-79
2022/07/17 01:36:22;;;;;;;2.00;0.80;;;;;;;;;;5014415;28;20037;-78
2022/07/17 01:38:48;;;;;;;3.47;0.80;;;;;;;;;;5012944;28;20030;-79
2022/07/17 01:41:15;;;;;;;2.40;0.68;;;;;;;;;;5012658;28;20145;-79
2022/07/17 01:43:41;;;;;;;1.33;0.80;;;;;;;;;;5012340;28;20094;-79
2022/07/17 01:46:07;;;;;;;1.50;0.75;;;;;;;;;;5014250;28;20481;-79
2022/07/17 01:48:33;;;;;;;2.60;0.80;;;;;;;;;;5013688;28;20026;-79
2022/07/17 01:51:00;;;;;;;2.42;0.80;;;;;;;;;;5012313;28;20468;-78
2022/07/17 01:53:26;;;;;;;2.22;0.90;;;;;;;;;;5012504;28;20072;-79
2022/07/17 01:55:53;;;;;;;2.50;0.90;;;;;;;;;;5012232;28;20030;-79
2022/07/17 01:58:19;;;;;;;1.98;0.90;;;;;;;;;;5014177;28;20022;-78
2022/07/17 02:00:45;;;;;;;2.33;0.85;;;;;;;;;;5012279;28;20490;-79
2022/07/17 02:03:11;;;;;;;1.80;0.80;;;;;;;;;;5012102;28;20022;-79
2022/07/17 02:05:37;;;;;;;3.60;0.98;;;;;;;;;;5012431;28;20092;-78
2022/07/17 02:08:03;;;;;;;2.03;0.90;;;;;;;;;;5011746;28;20045;-79
2022/07/17 02:10:30;;;;;;;2.22;0.90;;;;;;;;;;5011848;28;20060;-79
2022/07/17 02:12:57;;;;;;;2.33;0.80;;;;;;;;;;5013708;28;20034;-79
2022/07/17 02:15:23;;;;;;;1.80;0.82;;;;;;;;;;5015630;28;20022;-79
2022/07/17 02:17:50;;;;;;;3.15;0.88;;;;;;;;;;5015623;28;20034;-79
2022/07/17 02:20:16;;;;;;;3.97;0.80;;;;;;;;;;5017545;28;20076;-79
2022/07/17 02:22:42;;;;;;;1.95;0.90;;;;;;;;;;5015601;28;20026;-78
2022/07/17 02:25:09;;;;;;;2.13;0.98;;;;;;;;;;5017195;28;20050;-79
2022/07/17 02:27:39;;;;;;;2.03;0.70;;;;;;;;;;5017520;28;20068;-79
2022/07/17 02:30:11;;;;;;;2.35;0.80;;;;;;;;;;5015608;28;20104;-79
2022/07/17 02:32:37;;;;;;;2.17;0.80;;;;;;;;;;5015398;28;20029;-78
2022/07/17 02:35:04;;;;;;;2.85;0.90;;;;;;;;;;5017120;28;20026;-79
2022/07/17 02:37:30;;;;;;;2.65;0.82;;;;;;;;;;5015429;28;20018;-78
2022/07/17 02:39:56;;;;;;;2.00;0.85;;;;;;;;;;5016702;28;20026;-78
2022/07/17 02:42:23;;;;;;;2.55;0.80;;;;;;;;;;5017153;28;20076;-79
2022/07/17 02:44:50;;;;;;;2.22;0.80;;;;;;;;;;5015208;28;20033;-78
2022/07/17 02:47:32;;;;;;;3.05;0.65;;;;;;;;;;5015094;28;20104;-79
2022/07/17 02:49:59;;;;;;;1.90;0.85;;;;;;;;;;5015010;28;20060;-78
2022/07/17 02:52:25;;;;;;;1.60;0.90;;;;;;;;;;5015032;28;20029;-78
2022/07/17 02:54:52;;;;;;;3.67;1.17;;;;;;;;;;5015065;28;20403;-79
2022/07/17 02:57:18;;;;;;;2.47;0.90;;;;;;;;;;5015803;28;20109;-79
2022/07/17 02:59:44;;;;;;;1.95;0.95;;;;;;;;;;5014832;28;20033;-79
2022/07/17 03:05:05;;;;;;;2.17;0.82;;;;;;;;;;5008350;28;20030;-79
2022/07/17 03:07:31;;;;;;;2.17;0.90;;;;;;;;;;5015353;28;20030;-78
2022/07/17 03:09:57;;;;;;;2.97;1.00;;;;;;;;;;5014577;28;20049;-79
2022/07/17 03:12:23;;;;;;;2.78;1.20;;;;;;;;;;5015436;28;20034;-76
2022/07/17 03:14:49;;;;;;;2.15;1.00;;;;;;;;;;5016871;28;20105;-78
2022/07/17 03:17:15;;;;;;;2.30;0.93;;;;;;;;;;5018085;28;20026;-79
2022/07/17 03:19:41;;;;;;;2.72;0.90;;;;;;;;;;5014626;28;20112;-79
2022/07/17 03:22:08;;;;;;;2.53;1.02;;;;;;;;;;5015237;28;20034;-79
2022/07/17 03:24:34;;;;;;;2.75;1.02;;;;;;;;;;5014307;28;20060;-79
2022/07/17 03:27:00;;;;;;;3.53;1.27;;;;;;;;;;5014335;28;20030;-79
2022/07/17 03:29:26;;;;;;;2.25;1.20;;;;;;;;;;5014763;28;20042;-78
2022/07/17 03:31:53;;;;;;;2.30;1.10;;;;;;;;;;5014945;28;20022;-79
2022/07/17 03:34:19;;;;;;;2.97;1.23;;;;;;;;;;5017188;28;20018;-78
2022/07/17 03:36:45;;;;;;;2.28;1.00;;;;;;;;;;5015124;28;20026;-77
2022/07/17 03:39:11;;;;;;;2.42;0.95;;;;;;;;;;5014894;28;20032;-79
2022/07/17 03:41:37;;;;;;;2.38;1.20;;;;;;;;;;5016678;28;20455;-78
2022/07/17 03:44:04;;;;;;;5.20;1.30;;;;;;;;;;5013983;28;20190;-79
2022/07/17 03:46:30;;;;;;;3.15;1.30;;;;;;;;;;5014286;28;20076;-78
2022/07/17 03:48:56;;;;;;;4.10;1.13;;;;;;;;;;5015669;28;20029;-78
2022/07/17 03:51:22;;;;;;;2.92;1.00;;;;;;;;;;5014497;28;20029;-79
2022/07/17 03:53:49;;;;;;;2.25;1.00;;;;;;;;;;5015636;28;20121;-79
2022/07/17 03:56:15;;;;;;;2.63;1.25;;;;;;;;;;5014627;28;20069;-79
2022/07/17 03:58:41;;;;;;;5.82;2.50;;;;;;;;;;5014522;28;20018;-79
2022/07/17 04:01:07;;;;;;;4.50;2.50;;;;;;;;;;5014781;28;20030;-77
2022/07/17 04:03:33;;;;;;;6.15;2.40;;;;;;;;;;5013922;28;20467;-77
2022/07/17 04:05:59;;;;;;;6.97;3.03;;;;;;;;;;5013576;28;20026;-77
2022/07/17 04:08:28;;;;;;;3.70;2.30;;;;;;;;;;5013615;28;20115;-78
2022/07/17 04:10:54;;;;;;;5.00;2.30;;;;;;;;;;5014279;28;20037;-78
2022/07/17 04:13:20;;;;;;;3.33;1.80;;;;;;;;;;5014458;28;20033;-76
2022/07/17 04:15:49;;;;;;;2.90;1.70;;;;;;;;;;5017615;28;20042;-78
2022/07/17 04:18:19;;;;;;;4.68;1.80;;;;;;;;;;5016646;28;20080;-79
2022/07/17 04:20:45;;;;;;;2.78;1.50;;;;;;;;;;5015217;28;20030;-75
2022/07/17 04:23:12;;;;;;;1.95;1.20;;;;;;;;;;5014168;28;20178;-79
2022/07/17 04:25:39;;;;;;;2.67;1.00;;;;;;;;;;5013799;28;20026;-79
2022/07/17 04:28:06;;;;;;;2.78;1.10;;;;;;;;;;5014837;28;20053;-79
2022/07/17 04:30:32;;;;;;;3.30;1.30;;;;;;;;;;5014610;28;20034;-79
2022/07/17 04:32:58;;;;;;;5.53;1.40;;;;;;;;;;5013156;28;20483;-78
2022/07/17 04:35:24;;;;;;;2.72;1.20;;;;;;;;;;5012560;28;20022;-79
2022/07/17 04:37:50;;;;;;;3.03;1.23;;;;;;;;;;5013907;28;20030;-79
2022/07/17 04:40:17;;;;;;;2.20;1.00;;;;;;;;;;5013112;28;20034;-79
2022/07/17 04:42:43;;;;;;;2.22;0.90;;;;;;;;;;5013208;28;20497;-79
2022/07/17 04:45:09;;;;;;;2.65;0.90;;;;;;;;;;5012776;28;20034;-79
2022/07/17 04:47:36;;;;;;;2.78;1.08;;;;;;;;;;5014391;28;20434;-78
2022/07/17 04:50:02;;;;;;;2.75;0.75;;;;;;;;;;5013114;28;20044;-79
2022/07/17 04:52:28;;;;;;;4.25;1.17;;;;;;;;;;5012853;28;20037;-79
2022/07/17 04:54:55;;;;;;;3.58;0.90;;;;;;;;;;5012841;28;20407;-79
2022/07/17 04:57:21;;;;;;;2.60;0.75;;;;;;;;;;5014090;28;20022;-79
2022/07/17 04:59:47;;;;;;;2.42;0.82;;;;;;;;;;5012650;28;20029;-79
2022/07/17 05:02:13;;;;;;;4.35;0.80;;;;;;;;;;5013195;28;20034;-80
2022/07/17 05:04:39;;;;;;;2.95;1.00;;;;;;;;;;5013465;28;20026;-79
2022/07/17 05:07:05;;;;;;;2.05;0.60;;;;;;;;;;5014419;28;20068;-80
2022/07/17 05:09:35;;;;;;;2.00;0.70;;;;;;;;;;5013401;28;20101;-79
2022/07/17 05:12:01;;;;;;;2.67;0.80;;;;;;;;;;5013905;28;20032;-80
2022/07/17 05:14:27;;;;;;;3.75;0.65;;;;;;;;;;5012407;28;20121;-80
2022/07/17 05:16:53;;;;;;;1.38;0.75;;;;;;;;;;5012706;28;20112;-80
2022/07/17 05:19:19;;;;;;;5.07;0.80;;;;;;;;;;5014294;28;20022;-79
2022/07/17 05:21:47;;;;;;;5.72;1.00;;;;;;;;;;5012646;28;20042;-80
2022/07/17 05:24:13;;;;;;;1.65;0.70;;;;;;;;;;5015187;28;20081;-80
2022/07/17 05:26:39;;;;;;;1.60;0.68;;;;;;;;;;5012697;28;20029;-80
2022/07/17 05:29:05;;;;;;;1.40;0.55;;;;;;;;;;5012392;28;20026;-80
2022/07/17 05:31:31;;;;;;;1.77;0.70;;;;;;;;;;5013101;28;20497;-80
2022/07/17 05:33:57;;;;;;;1.73;0.68;;;;;;;;;;5013202;28;20033;-80
2022/07/17 05:36:23;;;;;;;2.72;0.80;;;;;;;;;;5012698;28;20033;-80
2022/07/17 05:38:49;;;;;;;2.78;0.60;;;;;;;;;;5013628;28;20057;-78
2022/07/17 05:41:16;;;;;;;2.67;0.57;;;;;;;;;;5012955;28;20022;-79
2022/07/17 05:43:42;;;;;;;1.65;0.70;;;;;;;;;;5013528;28;20026;-79
2022/07/17 05:46:08;;;;;;;1.98;0.80;;;;;;;;;;5023444;28;20057;-78
2022/07/17 05:48:34;;;;;;;4.47;0.88;;;;;;;;;;5021249;28;20030;-77
2022/07/17 05:51:00;;;;;;;1.85;0.65;;;;;;;;;;5016597;28;20042;-80
2022/07/17 05:53:27;;;;;;;1.95;0.60;;;;;;;;;;5016785;28;20034;-78
2022/07/17 05:55:53;;;;;;;2.78;0.80;;;;;;;;;;5027806;28;20038;-79
2022/07/17 05:58:20;;;;;;;2.58;0.70;;;;;;;;;;5035896;28;20018;-80
2022/07/17 06:00:46;;;;;;;2.30;0.50;;;;;;;;;;5033824;28;20030;-78
2022/07/17 06:03:12;;;;;;;2.63;0.65;;;;;;;;;;5034301;28;20018;-77
2022/07/17 06:05:39;;;;;;;2.17;0.90;;;;;;;;;;5037693;28;20121;-79
2022/07/17 06:08:05;;;;;;;3.55;0.70;;;;;;;;;;5032738;28;20516;-79
2022/07/17 06:10:38;;;;;;;1.10;0.38;;;;;;;;;;5038414;28;20514;-80
2022/07/17 06:13:09;;;;;;;3.53;1.02;;;;;;;;;;5024723;28;20383;-80
2022/07/17 06:15:36;;;;;;;1.92;0.60;;;;;;;;;;5021641;28;20030;-82
2022/07/17 06:18:03;;;;;;;2.05;0.55;;;;;;;;;;5034688;28;20030;-79
2022/07/17 06:20:30;;;;;;;3.72;0.68;;;;;;;;;;5032076;28;20026;-82
2022/07/17 06:22:57;;;;;;;2.22;0.70;;;;;;;;;;5034825;28;20514;-80
2022/07/17 06:25:23;;;;;;;1.67;0.50;;;;;;;;;;5017112;28;20026;-81
2022/07/17 06:27:49;;;;;;;2.65;0.70;;;;;;;;;;5032761;28;20027;-82
2022/07/17 06:30:15;;;;;;;4.28;0.60;;;;;;;;;;5033261;28;20037;-79
2022/07/17 06:32:42;;;;;;;2.25;0.50;;;;;;;;;;5034128;28;20029;-78
2022/07/17 06:35:09;;;;;;;2.90;0.57;;;;;;;;;;5032339;28;20062;-79
2022/07/17 06:37:35;;;;;;;1.75;0.50;;;;;;;;;;5031987;28;20029;-78
2022/07/17 06:40:01;;;;;;;1.75;0.47;;;;;;;;;;5032702;28;20022;-78
2022/07/17 06:42:28;;;;;;;2.22;0.52;;;;;;;;;;5032033;28;20098;-78
2022/07/17 06:44:54;;;;;;;2.47;0.55;;;;;;;;;;5031669;28;20045;-80
2022/07/17 06:47:20;;;;;;;3.65;0.70;;;;;;;;;;5031669;28;20038;-78
2022/07/17 06:49:46;;;;;;;3.05;0.85;;;;;;;;;;5031748;28;20042;-80
2022/07/17 06:52:12;;;;;;;3.90;0.50;;;;;;;;;;5032043;28;20113;-78
2022/07/17 06:54:39;;;;;;;6.43;1.25;;;;;;;;;;5031894;28;20111;-80
2022/07/17 06:57:05;;;;;;;3.20;1.10;;;;;;;;;;5016219;28;20030;-76
2022/07/17 06:59:31;;;;;;;2.35;0.52;;;;;;;;;;5030874;28;20022;-76
2022/07/17 07:01:57;;;;;;;2.60;0.60;;;;;;;;;;5031206;28;20042;-73
2022/07/17 07:04:23;;;;;;;1.55;0.38;;;;;;;;;;5031525;28;20034;-74
2022/07/17 07:06:49;;;;;;;2.00;0.50;;;;;;;;;;5015397;28;20026;-76
2022/07/17 07:09:16;;;;;;;2.60;0.47;;;;;;;;;;5030896;28;20514;-78
2022/07/17 07:11:42;;;;;;;1.75;0.52;;;;;;;;;;5031631;28;20034;-77
2022/07/17 07:14:08;;;;;;;0.95;0.30;;;;;;;;;;5031037;28;20026;-82
2022/07/17 07:16:36;;;;;;;2.97;0.60;;;;;;;;;;5016268;28;20084;-82
2022/07/17 07:19:02;;;;;;;2.25;0.40;;;;;;;;;;5028798;28;20022;-79
2022/07/17 07:21:28;;;;;;;2.83;0.40;;;;;;;;;;5014673;28;20049;-80
2022/07/17 07:23:54;;;;;;;2.17;0.50;;;;;;;;;;5031344;28;20022;-80
2022/07/17 07:26:21;;;;;;;1.88;0.60;;;;;;;;;;5031234;28;20060;-82
2022/07/17 07:28:47;;;;;;;1.85;0.60;;;;;;;;;;5030434;28;20041;-82
2022/07/17 07:31:13;;;;;;;1.55;0.50;;;;;;;;;;5031875;28;20038;-83
2022/07/17 07:33:39;;;;;;;1.45;0.50;;;;;;;;;;5031128;28;20018;-80
2022/07/17 07:36:05;;;;;;;3.10;0.47;;;;;;;;;;5030933;28;20398;-82
2022/07/17 07:38:32;;;;;;;3.25;0.70;;;;;;;;;;5030685;28;20081;-82
2022/07/17 07:40:58;;;;;;;2.58;0.80;;;;;;;;;;5015967;28;20032;-81
2022/07/17 07:43:24;;;;;;;3.42;0.60;;;;;;;;;;5030415;28;20121;-82
2022/07/17 07:45:51;;;;;;;3.13;0.50;;;;;;;;;;5031257;28;20072;-80
2022/07/17 07:48:17;;;;;;;2.85;0.60;;;;;;;;;;5015534;28;20037;-83
2022/07/17 07:50:43;;;;;;;3.42;0.73;;;;;;;;;;5015457;28;20076;-82
2022/07/17 07:53:09;;;;;;;3.53;0.70;;;;;;;;;;5030885;28;20064;-82
2022/07/17 07:55:35;;;;;;;2.83;0.77;;;;;;;;;;5015961;28;20036;-82
2022/07/17 07:58:02;;;;;;;2.67;0.60;;;;;;;;;;5030193;28;20021;-82
2022/07/17 08:00:28;;;;;;;2.17;0.40;;;;;;;;;;5015690;28;20037;-82
2022/07/17 08:02:54;;;;;;;2.15;0.50;;;;;;;;;;5031340;28;20033;-80
2022/07/17 08:05:21;;;;;;;1.42;0.45;;;;;;;;;;5030260;28;20030;-79
2022/07/17 08:07:47;;;;;;;1.63;0.40;;;;;;;;;;5030706;28;20026;-82
2022/07/17 08:10:13;;;;;;;2.70;0.50;;;;;;;;;;5029507;28;20046;-78
2022/07/17 08:12:39;;;;;;;2.38;0.40;;;;;;;;;;5015161;28;20371;-82
2022/07/17 08:15:06;;;;;;;2.42;0.55;;;;;;;;;;5014887;28;20029;-82
2022/07/17 08:17:32;;;;;;;2.33;0.47;;;;;;;;;;5030820;28;20116;-79
2022/07/17 08:19:58;;;;;;;1.42;0.30;;;;;;;;;;5015446;28;20030;-82
2022/07/17 08:22:25;;;;;;;1.33;0.30;;;;;;;;;;5030592;28;20033;-80
2022/07/17 08:24:51;;;;;;;2.13;0.40;;;;;;;;;;5030181;28;20026;-81
2022/07/17 08:27:17;;;;;;;3.97;0.60;;;;;;;;;;5015147;28;20044;-83
2022/07/17 08:29:43;;;;;;;2.80;0.73;;;;;;;;;;5030053;28;20060;-81
2022/07/17 08:32:09;;;;;;;2.40;0.60;;;;;;;;;;5029522;28;20030;-79
2022/07/17 08:34:35;;;;;;;1.50;0.35;;;;;;;;;;5015558;28;20026;-80
2022/07/17 08:37:01;;;;;;;1.88;0.40;;;;;;;;;;5029949;28;20121;-81
2022/07/17 08:39:28;;;;;;;1.48;0.43;;;;;;;;;;5030108;28;20038;-79
2022/07/17 08:41:54;;;;;;;1.63;0.40;;;;;;;;;;5029536;28;20045;-75
2022/07/17 08:44:20;;;;;;;3.08;0.70;;;;;;;;;;5029579;28;20037;-82
2022/07/17 08:46:46;;;;;;;1.95;0.50;;;;;;;;;;5014919;28;20069;-79
2022/07/17 08:49:14;;;;;;;2.90;0.50;;;;;;;;;;5030101;28;20030;-77
2022/07/17 08:51:40;;;;;;;2.38;0.70;;;;;;;;;;5029944;28;20022;-80
2022/07/17 08:54:06;;;;;;;1.73;0.38;;;;;;;;;;5014401;28;20034;-85
2022/07/17 08:56:32;;;;;;;1.33;0.45;;;;;;;;;;5029494;28;20117;-80
2022/07/17 08:58:59;;;;;;;1.80;0.55;;;;;;;;;;5029606;28;20044;-79
2022/07/17 09:01:25;;;;;;;1.63;0.43;;;;;;;;;;5014464;28;20471;-77
2022/07/17 09:03:59;;;;;;;1.98;0.50;;;;;;;;;;5014381;28;20030;-81
2022/07/17 09:06:26;;;;;;;1.98;0.70;;;;;;;;;;5029647;28;20060;-78
2022/07/17 09:09:03;;;;;;;1.77;0.57;;;;;;;;;;5028578;28;20038;-78
2022/07/17 09:11:30;;;;;;;1.20;0.50;;;;;;;;;;5029707;28;20010;-78
2022/07/17 09:13:56;;;;;;;1.60;0.50;;;;;;;;;;5014284;28;20026;-78
2022/07/17 09:16:23;;;;;;;2.78;0.93;;;;;;;;;;5028964;28;20026;-79
2022/07/17 09:18:50;;;;;;;1.85;0.57;;;;;;;;;;5029319;28;20061;-79
2022/07/17 09:21:18;;;;;;;1.48;0.50;;;;;;;;;;5014128;28;20077;-78
2022/07/17 09:23:44;;;;;;;2.63;0.70;;;;;;;;;;5014324;28;20018;-79
2022/07/17 09:26:10;;;;;;;2.78;0.60;;;;;;;;;;5029481;28;20031;-79
2022/07/17 09:28:46;;;;;;;2.70;0.60;;;;;;;;;;5029994;28;20026;-81
2022/07/17 09:31:14;;;;;;;3.53;0.57;;;;;;;;;;5029096;28;20084;-80
2022/07/17 09:33:41;;;;;;;1.88;0.50;;;;;;;;;;5029513;28;20030;-79
2022/07/17 09:36:09;;;;;;;1.55;0.47;;;;;;;;;;5028953;28;20038;-81
2022/07/17 09:38:44;;;;;;;2.63;0.68;;;;;;;;;;5029003;28;20160;-81
2022/07/17 09:41:12;;;;;;;1.40;0.32;;;;;;;;;;5029010;28;20029;-81
2022/07/17 09:43:42;;;;;;;2.17;0.52;;;;;;;;;;5029293;28;20544;-81
2022/07/17 09:46:09;;;;;;;3.20;0.50;;;;;;;;;;5028880;28;20060;-80
2022/07/17 09:48:37;;;;;;;1.83;0.30;;;;;;;;;;5029690;28;20291;-78
2022/07/17 09:51:03;;;;;;;2.85;0.57;;;;;;;;;;5013424;28;20025;-79
2022/07/17 09:53:30;;;;;;;3.75;0.50;;;;;;;;;;5013970;28;20037;-81
2022/07/17 09:55:57;;;;;;;1.35;0.50;;;;;;;;;;5013967;28;20471;-79
2022/07/17 09:58:24;;;;;;;1.38;0.45;;;;;;;;;;5029109;28;20044;-80
2022/07/17 10:00:51;;;;;;;2.35;0.55;;;;;;;;;;5013696;28;20117;-80
2022/07/17 10:03:19;;;;;;;2.30;0.80;;;;;;;;;;5014154;28;20048;-78
2022/07/17 10:05:45;;;;;;;1.25;0.40;;;;;;;;;;5029100;28;20034;-79
2022/07/17 10:08:12;;;;;;;1.25;0.50;;;;;;;;;;5028997;28;20109;-79
2022/07/17 10:10:38;;;;;;;1.60;0.55;;;;;;;;;;5013226;28;20042;-80
2022/07/17 10:13:04;;;;;;;2.80;0.52;;;;;;;;;;5028634;28;20113;-80
2022/07/17 10:15:30;;;;;;;4.25;0.47;;;;;;;;;;5013979;28;20030;-78
2022/07/17 10:18:06;;;;;;;1.80;0.57;;;;;;;;;;5028650;28;20034;-78
2022/07/17 10:20:33;;;;;;;1.70;0.50;;;;;;;;;;5029423;28;20034;-77
2022/07/17 10:22:59;;;;;;;1.90;0.65;;;;;;;;;;5028749;28;20463;-78
2022/07/17 10:25:25;;;;;;;1.40;0.50;;;;;;;;;;5013365;28;20502;-79
2022/07/17 10:27:56;;;;;;;1.25;0.40;;;;;;;;;;5028545;28;20045;-79
2022/07/17 10:30:26;;;;;;;3.13;0.50;;;;;;;;;;5028736;28;20041;-77
2022/07/17 10:32:54;;;;;;;2.60;0.68;;;;;;;;;;5028817;28;20265;-80
2022/07/17 10:35:20;;;;;;;4.07;0.60;;;;;;;;;;5016760;28;20061;-80
2022/07/17 10:37:46;;;;;;;1.77;0.50;;;;;;;;;;5032453;28;20030;-76
2022/07/17 10:40:15;;;;;;;1.73;0.40;;;;;;;;;;5017126;28;20030;-78
2022/07/17 10:42:44;;;;;;;3.47;0.50;;;;;;;;;;5032205;28;20483;-79
2022/07/17 10:45:12;;;;;;;2.08;0.57;;;;;;;;;;5032120;28;20049;-77
2022/07/17 10:47:44;;;;;;;2.28;0.60;;;;;;;;;;5014267;28;20022;-78
2022/07/17 10:50:12;;;;;;;2.72;0.60;;;;;;;;;;5026853;28;20030;-77
2022/07/17 10:52:38;;;;;;;3.33;0.60;;;;;;;;;;5032047;28;20037;-77
2022/07/17 10:55:05;;;;;;;2.60;0.60;;;;;;;;;;5016823;28;20033;-79
2022/07/17 10:57:32;;;;;;;4.97;0.85;;;;;;;;;;5015796;28;20037;-72
2022/07/17 10:59:58;;;;;;;3.45;0.80;;;;;;;;;;5030801;28;20033;-76
2022/07/17 11:02:28;;;;;;;4.20;0.60;;;;;;;;;;5028516;28;20025;-78
2022/07/17 11:04:54;;;;;;;3.67;0.88;;;;;;;;;;5031718;28;20026;-77
2022/07/17 11:07:20;;;;;;;3.22;0.68;;;;;;;;;;5017349;28;20096;-80
2022/07/17 11:09:47;;;;;;;3.38;0.60;;;;;;;;;;5017192;28;20391;-88
2022/07/17 11:12:13;;;;;;;1.52;0.50;;;;;;;;;;5031601;28;20060;-78
2022/07/17 11:14:39;;;;;;;4.15;0.80;;;;;;;;;;5031616;28;20061;-77
2022/07/17 11:17:06;;;;;;;3.45;0.80;;;;;;;;;;5031796;28;20022;-77
2022/07/17 11:19:39;;;;;;;1.80;0.70;;;;;;;;;;5016052;28;20030;-82
2022/07/17 11:22:09;;;;;;;2.30;0.60;;;;;;;;;;5031737;28;20030;-77
2022/07/17 11:24:36;;;;;;;2.22;0.95;;;;;;;;;;5031126;28;20425;-77
2022/07/17 11:27:03;;;;;;;3.70;0.55;;;;;;;;;;5031404;28;20056;-76
2022/07/17 11:29:29;;;;;;;2.90;0.80;;;;;;;;;;5015685;28;20026;-79
2022/07/17 11:31:56;;;;;;;1.60;0.60;;;;;;;;;;5031223;28;20069;-75
2022/07/17 11:34:25;;;;;;;1.90;0.68;;;;;;;;;;5031072;28;20026;-81
2022/07/17 11:36:51;;;;;;;3.58;0.70;;;;;;;;;;5031600;28;20117;-79
2022/07/17 11:39:18;;;;;;;1.80;0.73;;;;;;;;;;5016181;28;20036;-78
2022/07/17 11:41:52;;;;;;;5.13;0.80;;;;;;;;;;5030988;28;20026;-78
2022/07/17 11:44:21;;;;;;;2.47;0.60;;;;;;;;;;5030990;28;20040;-79
2022/07/17 11:46:49;;;;;;;2.17;0.65;;;;;;;;;;5031009;28;20137;-80
2022/07/17 11:49:25;;;;;;;1.63;0.52;;;;;;;;;;5016019;28;20109;-79
2022/07/17 11:51:52;;;;;;;1.33;0.50;;;;;;;;;;5031356;28;20108;-78
2022/07/17 11:54:18;;;;;;;3.80;0.50;;;;;;;;;;5030468;28;20061;-77
2022/07/17 11:56:52;;;;;;;4.22;0.70;;;;;;;;;;5030705;28;20053;-82
2022/07/17 11:59:25;;;;;;;2.35;0.68;;;;;;;;;;5030895;28;20029;-75
2022/07/17 12:01:51;;;;;;;1.67;0.70;;;;;;;;;;5021306;28;20030;-80
2022/07/17 12:04:17;;;;;;;1.70;0.60;;;;;;;;;;5015689;28;20025;-77
2022/07/17 12:06:44;;;;;;;2.70;0.80;;;;;;;;;;5029488;28;20030;-81
2022/07/17 12:09:10;;;;;;;4.43;0.70;;;;;;;;;;5029828;28;20137;-77
2022/07/17 12:11:48;;;;;;;2.90;0.70;;;;;;;;;;5014257;28;20021;-76
2022/07/17 12:14:14;;;;;;;4.53;0.98;;;;;;;;;;5013870;28;20032;-80
2022/07/17 12:16:41;;;;;;;3.17;0.80;;;;;;;;;;5014995;28;20033;-80
2022/07/17 12:19:14;;;;;;;4.20;0.93;;;;;;;;;;5014042;28;20034;-82
2022/07/17 12:21:56;;;;;;;6.05;0.77;;;;;;;;;;5014158;28;20034;-79
2022/07/17 12:24:26;;;;;;;4.05;0.82;;;;;;;;;;5013763;28;20092;-82
2022/07/17 12:26:53;;;;;;;2.22;0.60;;;;;;;;;;5013509;28;20115;-73
2022/07/17 12:29:20;;;;;;;2.80;0.80;;;;;;;;;;5013689;28;20029;-76
2022/07/17 12:31:46;;;;;;;1.20;0.50;;;;;;;;;;5013632;28;20056;-77
2022/07/17 12:34:12;;;;;;;5.28;0.85;;;;;;;;;;5013646;28;20053;-74
2022/07/17 12:36:38;;;;;;;1.75;0.60;;;;;;;;;;5013452;28;20026;-76
2022/07/17 12:39:05;;;;;;;1.42;0.60;;;;;;;;;;5014587;28;20030;-78
2022/07/17 12:41:31;;;;;;;1.60;0.68;;;;;;;;;;5013317;28;20495;-75
2022/07/17 12:43:58;;;;;;;2.30;0.75;;;;;;;;;;5014480;28;20049;-78
2022/07/17 12:46:24;;;;;;;1.67;0.50;;;;;;;;;;5009379;28;20045;-78
2022/07/17 12:48:50;;;;;;;3.22;0.70;;;;;;;;;;5029814;28;20034;-78
2022/07/17 12:51:16;;;;;;;2.53;0.63;;;;;;;;;;5029705;28;20475;-77
2022/07/17 12:53:44;;;;;;;2.40;0.57;;;;;;;;;;5014343;28;20025;-77
2022/07/17 12:56:10;;;;;;;2.25;0.82;;;;;;;;;;5029377;28;20489;-76
2022/07/17 12:58:36;;;;;;;2.95;0.60;;;;;;;;;;5029388;28;20028;-76
2022/07/17 13:01:04;;;;;;;5.97;0.88;;;;;;;;;;5029472;28;20487;-76
2022/07/17 13:03:30;;;;;;;2.15;0.65;;;;;;;;;;5014745;28;20025;-75
2022/07/17 13:05:56;;;;;;;3.15;0.70;;;;;;;;;;5029742;28;20037;-81
2022/07/17 13:08:22;;;;;;;1.73;0.60;;;;;;;;;;5015158;28;20034;-83
2022/07/17 13:10:48;;;;;;;2.00;0.60;;;;;;;;;;5030378;28;20069;-73
2022/07/17 13:13:14;;;;;;;2.20;0.68;;;;;;;;;;5029310;28;20121;-73
2022/07/17 13:15:41;;;;;;;4.10;0.60;;;;;;;;;;5029091;28;20553;-81
2022/07/17 13:18:07;;;;;;;2.17;0.52;;;;;;;;;;5029693;28;20026;-75
2022/07/17 13:20:33;;;;;;;2.63;0.82;;;;;;;;;;5029102;28;20048;-83
2022/07/17 13:22:59;;;;;;;4.18;0.93;;;;;;;;;;5014376;28;20034;-75
2022/07/17 13:25:29;;;;;;;2.78;0.88;;;;;;;;;;5029517;28;20034;-75
2022/07/17 13:27:55;;;;;;;2.05;0.85;;;;;;;;;;5014578;28;20030;-84
2022/07/17 13:30:21;;;;;;;3.30;0.70;;;;;;;;;;5030475;28;20026;-74
2022/07/17 13:32:47;;;;;;;4.18;0.77;;;;;;;;;;5029526;28;20498;-76
2022/07/17 13:35:14;;;;;;;2.72;0.60;;;;;;;;;;5029898;28;20028;-87
2022/07/17 13:37:40;;;;;;;5.57;0.60;;;;;;;;;;5013465;28;20482;-86
2022/07/17 13:40:07;;;;;;;3.17;0.70;;;;;;;;;;5029515;28;20041;-84
2022/07/17 13:42:33;;;;;;;3.92;0.80;;;;;;;;;;5014587;28;20072;-81
2022/07/17 13:44:59;;;;;;;3.30;0.65;;;;;;;;;;5029748;28;20386;-84
2022/07/17 13:47:25;;;;;;;2.28;0.80;;;;;;;;;;5029346;28;20026;-82
2022/07/17 13:49:51;;;;;;;2.33;0.68;;;;;;;;;;5029560;28;20057;-83
2022/07/17 13:52:17;;;;;;;4.30;0.75;;;;;;;;;;5029001;28;20060;-84
2022/07/17 13:54:43;;;;;;;3.63;0.75;;;;;;;;;;5028863;28;20030;-81
2022/07/17 13:57:10;;;;;;;3.88;0.70;;;;;;;;;;5014045;28;20026;-79
2022/07/17 13:59:36;;;;;;;4.78;0.70;;;;;;;;;;5028389;28;20137;-78
2022/07/17 14:02:05;;;;;;;2.60;0.70;;;;;;;;;;5028673;28;20026;-77
2022/07/17 14:04:31;;;;;;;2.40;0.70;;;;;;;;;;5014068;28;20029;-76
2022/07/17 14:06:57;;;;;;;1.92;0.63;;;;;;;;;;5013639;28;20053;-79
2022/07/17 14:09:23;;;;;;;1.88;0.80;;;;;;;;;;5016167;28;20053;-79
2022/07/17 14:11:49;;;;;;;2.38;0.70;;;;;;;;;;5017179;28;20057;-78
2022/07/17 14:14:16;;;;;;;2.47;0.80;;;;;;;;;;5015547;28;20487;-79
2022/07/17 14:16:42;;;;;;;2.00;0.60;;;;;;;;;;5016871;28;20028;-78
2022/07/17 14:19:08;;;;;;;2.72;0.75;;;;;;;;;;5017020;28;20037;-80
2022/07/17 14:21:36;;;;;;;1.25;0.60;;;;;;;;;;5015650;28;20438;-78
2022/07/17 14:24:02;;;;;;;2.20;0.80;;;;;;;;;;5015685;28;20026;-83
2022/07/17 14:26:29;;;;;;;2.42;0.80;;;;;;;;;;5015997;28;20356;-74
2022/07/17 14:28:55;;;;;;;1.60;0.70;;;;;;;;;;5016167;28;20454;-75
2022/07/17 14:31:21;;;;;;;2.95;0.70;;;;;;;;;;5016883;28;20022;-75
2022/07/17 14:33:47;;;;;;;3.28;0.70;;;;;;;;;;5015444;28;20406;-82
2022/07/17 14:36:14;;;;;;;4.35;0.85;;;;;;;;;;5016783;28;20026;-76
2022/07/17 14:38:40;;;;;;;4.00;0.70;;;;;;;;;;5013652;28;20303;-88
2022/07/17 14:41:13;;;;;;;2.80;0.80;;;;;;;;;;5019565;28;20049;-87
2022/07/17 14:43:45;;;;;;;17.38;0.77;;;;;;;;;;5017046;28;20463;-88